createdAt,value
2024-02-26T00:01:23.290Z,61.50
2024-02-26T00:03:51.668Z,32.63
2024-02-26T00:06:20.309Z,36.40
2024-02-26T00:08:48.940Z,48.23
2024-02-26T00:11:18.700Z,51.33
2024-02-26T00:13:47.157Z,58.23
2024-02-26T00:16:16.002Z,58.77
2024-02-26T00:18:46.397Z,44.30
2024-02-26T00:21:16.396Z,44.40
2024-02-26T00:23:46.025Z,68.50
2024-02-26T00:26:14.453Z,51.63
2024-02-26T00:28:47.758Z,43.23
2024-02-26T00:31:16.183Z,55.53
2024-02-26T00:33:44.829Z,84.10
2024-02-26T00:36:13.295Z,69.77
2024-02-26T00:38:42.126Z,82.07
2024-02-26T00:41:11.868Z,52.97
2024-02-26T00:43:41.377Z,89.60
2024-02-26T00:46:11.218Z,72.67
2024-02-26T00:48:39.677Z,88.40
2024-02-26T00:51:08.928Z,106.27
2024-02-26T00:53:37.573Z,103.67
2024-02-26T00:56:06.393Z,76.30
2024-02-26T00:58:34.852Z,57.30
2024-02-26T01:01:04.113Z,45.27
2024-02-26T01:03:35.247Z,69.33
2024-02-26T01:06:03.799Z,82.70
2024-02-26T01:08:32.760Z,107.47
2024-02-26T01:11:01.212Z,98.60
2024-02-26T01:13:29.582Z,107.43
2024-02-26T01:15:57.970Z,99.03
2024-02-26T01:18:26.433Z,89.70
2024-02-26T01:20:56.532Z,102.70
2024-02-26T01:23:24.997Z,117.20
2024-02-26T01:25:53.576Z,107.70
2024-02-26T01:28:22.145Z,71.13
2024-02-26T01:30:50.426Z,73.20
2024-02-26T01:33:18.925Z,82.10
2024-02-26T01:35:47.889Z,87.43
2024-02-26T01:38:17.769Z,75.23
2024-02-26T01:40:46.128Z,78.97
2024-02-26T01:43:14.712Z,87.33
2024-02-26T01:45:43.075Z,119.27
2024-02-26T01:48:12.468Z,129.30
2024-02-26T01:50:41.977Z,142.20
2024-02-26T01:53:10.902Z,153.67
2024-02-26T01:55:40.779Z,161.23
2024-02-26T01:58:09.501Z,151.23
2024-02-26T02:00:38.573Z,142.57
2024-02-26T02:03:07.566Z,120.93
2024-02-26T02:05:35.951Z,129.67
2024-02-26T02:08:06.166Z,164.57
2024-02-26T02:10:34.638Z,135.93
2024-02-26T02:13:04.363Z,148.80
2024-02-26T02:15:32.744Z,123.63
2024-02-26T02:18:01.250Z,112.37
2024-02-26T02:20:35.636Z,156.03
2024-02-26T02:23:04.284Z,147.17
2024-02-26T02:25:32.850Z,156.00
2024-02-26T02:28:01.465Z,149.80
2024-02-26T02:30:31.889Z,159.47
2024-02-26T02:33:00.699Z,99.43
2024-02-26T02:35:29.182Z,69.80
2024-02-26T02:37:59.957Z,110.40
2024-02-26T02:40:28.386Z,148.00
2024-02-26T02:42:56.829Z,164.97
2024-02-26T02:45:25.244Z,188.77
2024-02-26T02:47:53.820Z,164.80
2024-02-26T02:50:22.369Z,136.47
2024-02-26T02:52:51.220Z,147.67
2024-02-26T02:55:21.747Z,133.87
2024-02-26T02:57:50.182Z,148.50
2024-02-26T03:00:19.328Z,158.93
2024-02-26T03:02:47.832Z,103.17
2024-02-26T03:05:16.322Z,86.17
2024-02-26T03:07:44.856Z,167.73
2024-02-26T03:10:13.225Z,186.17
2024-02-26T03:12:42.964Z,128.93
2024-02-26T03:15:12.821Z,108.87
2024-02-26T03:17:41.250Z,134.73
2024-02-26T03:20:11.586Z,172.77
2024-02-26T03:22:41.100Z,227.00
2024-02-26T03:25:11.292Z,257.83
2024-02-26T03:27:39.665Z,280.23
2024-02-26T03:30:11.251Z,284.70
2024-02-26T03:32:39.787Z,298.20
2024-02-26T03:35:09.241Z,315.17
2024-02-26T03:37:37.609Z,339.27
2024-02-26T03:40:07.280Z,368.47
2024-02-26T03:42:35.674Z,338.73
2024-02-26T03:45:04.340Z,338.10
2024-02-26T03:47:34.241Z,324.53
2024-02-26T03:50:02.611Z,312.23
2024-02-26T03:52:31.034Z,315.67
2024-02-26T03:54:59.643Z,287.37
2024-02-26T03:57:28.066Z,287.93
2024-02-26T03:59:57.059Z,288.37
2024-02-26T04:02:26.811Z,256.73
2024-02-26T04:04:56.719Z,208.57
2024-02-26T04:07:25.091Z,166.57
2024-02-26T04:09:53.373Z,146.17
2024-02-26T04:12:21.929Z,118.17
2024-02-26T04:14:50.313Z,122.03
2024-02-26T04:17:18.816Z,125.43
2024-02-26T04:19:47.110Z,120.57
2024-02-26T04:22:16.820Z,141.97
2024-02-26T04:24:45.456Z,185.50
2024-02-26T04:27:14.256Z,196.40
2024-02-26T04:29:42.961Z,102.90
2024-02-26T04:32:12.447Z,110.20
2024-02-26T04:34:40.841Z,86.10
2024-02-26T04:37:09.211Z,88.33
2024-02-26T04:39:38.863Z,71.80
2024-02-26T04:42:07.511Z,68.10
2024-02-26T04:44:35.825Z,64.37
2024-02-26T04:47:04.416Z,59.37
2024-02-26T04:49:32.938Z,72.20
2024-02-26T04:52:01.340Z,67.13
2024-02-26T04:54:29.750Z,81.90
2024-02-26T04:56:59.956Z,90.47
2024-02-26T04:59:28.434Z,105.43
2024-02-26T05:01:56.791Z,121.57
2024-02-26T05:04:25.360Z,146.50
2024-02-26T05:06:54.627Z,143.73
2024-02-26T05:09:23.161Z,160.67
2024-02-26T05:11:51.525Z,197.03
2024-02-26T05:14:21.183Z,203.40
2024-02-26T05:16:50.295Z,195.87
2024-02-26T05:19:18.800Z,216.53
2024-02-26T05:21:50.183Z,233.60
2024-02-26T05:24:19.337Z,235.47
2024-02-26T05:26:47.861Z,242.17
2024-02-26T05:29:16.372Z,220.57
2024-02-26T05:31:46.219Z,182.47
2024-02-26T05:34:14.768Z,199.50
2024-02-26T05:36:44.394Z,201.57
2024-02-26T05:39:16.897Z,237.20
2024-02-26T05:41:47.139Z,226.63
2024-02-26T05:44:15.874Z,226.53
2024-02-26T05:46:46.771Z,252.77
2024-02-26T05:49:15.214Z,235.60
2024-02-26T05:51:43.576Z,255.73
2024-02-26T05:54:12.005Z,258.27
2024-02-26T05:56:42.609Z,257.80
2024-02-26T05:59:11.034Z,238.93
2024-02-26T06:01:40.443Z,217.07
2024-02-26T06:04:10.189Z,171.97
2024-02-26T06:06:41.625Z,165.53
2024-02-26T06:09:12.492Z,152.90
2024-02-26T06:11:42.004Z,153.27
2024-02-26T06:14:11.099Z,147.47
2024-02-26T06:16:39.596Z,147.50
2024-02-26T06:19:10.464Z,157.27
2024-02-26T06:21:41.911Z,161.07
2024-02-26T06:24:10.570Z,182.17
2024-02-26T06:26:38.919Z,213.33
2024-02-26T06:29:07.748Z,208.10
2024-02-26T06:31:36.347Z,191.37
2024-02-26T06:34:05.035Z,163.87
2024-02-26T06:36:34.460Z,143.73
2024-02-26T06:39:06.651Z,131.63
2024-02-26T06:41:35.159Z,118.13
2024-02-26T06:44:03.542Z,134.27
2024-02-26T06:46:32.055Z,125.53
2024-02-26T06:49:01.425Z,107.97
2024-02-26T06:51:29.964Z,108.10
2024-02-26T06:53:58.350Z,102.70
2024-02-26T06:56:28.034Z,107.47
2024-02-26T06:58:56.419Z,100.43
2024-02-26T07:01:24.796Z,96.03
2024-02-26T07:03:53.216Z,89.67
2024-02-26T07:06:21.701Z,78.50
2024-02-26T07:08:50.266Z,77.97
2024-02-26T07:11:20.204Z,72.77
2024-02-26T07:13:50.658Z,84.93
2024-02-26T07:16:19.004Z,77.17
2024-02-26T07:18:47.375Z,78.57
2024-02-26T07:21:15.862Z,74.13
2024-02-26T07:23:44.779Z,80.60
2024-02-26T07:26:13.745Z,86.77
2024-02-26T07:28:42.034Z,76.20
2024-02-26T07:31:11.737Z,69.93
2024-02-26T07:33:40.340Z,67.27
2024-02-26T07:36:08.952Z,62.73
2024-02-26T07:38:42.995Z,57.03
2024-02-26T07:41:12.479Z,69.57
2024-02-26T07:43:42.087Z,61.63
2024-02-26T07:46:13.599Z,55.67
2024-02-26T07:48:42.519Z,54.97
2024-02-26T07:51:11.049Z,56.20
2024-02-26T07:53:39.377Z,53.70
2024-02-26T07:56:08.950Z,51.93
2024-02-26T07:58:37.557Z,49.70
2024-02-26T08:01:05.988Z,50.83
2024-02-26T08:03:35.799Z,51.73
2024-02-26T08:06:04.331Z,45.43
2024-02-26T08:08:33.290Z,49.10
2024-02-26T08:11:01.728Z,47.17
2024-02-26T08:13:30.095Z,45.73
2024-02-26T08:15:58.485Z,45.23
2024-02-26T08:18:27.008Z,46.17
2024-02-26T08:20:56.859Z,43.63
2024-02-26T08:23:26.274Z,45.50
2024-02-26T08:25:54.660Z,41.90
2024-02-26T08:28:22.994Z,41.57
2024-02-26T08:30:51.460Z,42.43
2024-02-26T08:33:19.998Z,41.83
2024-02-26T08:35:48.374Z,46.63
2024-02-26T08:38:18.046Z,43.73
2024-02-26T08:40:46.484Z,39.13
2024-02-26T08:43:14.828Z,42.97
2024-02-26T08:45:43.307Z,39.30
2024-02-26T08:48:11.832Z,38.63
2024-02-26T08:50:40.178Z,36.10
2024-02-26T08:53:08.656Z,36.53
2024-02-26T08:55:38.372Z,36.63
2024-02-26T08:58:06.842Z,36.70
2024-02-26T09:00:35.268Z,33.73
2024-02-26T09:03:05.767Z,36.73
2024-02-26T09:05:34.420Z,34.83
2024-02-26T09:08:02.841Z,35.33
2024-02-26T09:10:31.230Z,33.07
2024-02-26T09:13:00.995Z,35.63
2024-02-26T09:15:29.428Z,31.57
2024-02-26T09:17:58.010Z,36.50
2024-02-26T09:20:26.470Z,35.03
2024-02-26T09:22:54.896Z,33.50
2024-02-26T09:25:23.198Z,33.23
2024-02-26T09:27:51.706Z,29.53
2024-02-26T09:30:21.855Z,35.20
2024-02-26T09:32:50.379Z,29.63
2024-02-26T09:35:18.965Z,30.40
2024-02-26T09:37:47.340Z,28.43
2024-02-26T09:40:15.800Z,28.33
2024-02-26T09:42:45.716Z,26.03
2024-02-26T09:45:19.125Z,25.77
2024-02-26T09:47:50.872Z,24.63
2024-02-26T09:50:23.661Z,23.80
2024-02-26T09:52:53.378Z,26.67
2024-02-26T09:55:21.763Z,25.30
2024-02-26T09:57:50.978Z,26.10
2024-02-26T10:00:21.321Z,21.80
2024-02-26T10:02:51.242Z,22.53
2024-02-26T10:05:20.666Z,24.43
2024-02-26T10:07:49.207Z,24.50
2024-02-26T10:10:18.527Z,22.67
2024-02-26T10:12:46.935Z,22.03
2024-02-26T10:15:15.584Z,19.83
2024-02-26T10:17:45.585Z,19.87
2024-02-26T10:20:17.410Z,18.40
2024-02-26T10:22:46.492Z,18.67
2024-02-26T10:25:15.124Z,19.27
2024-02-26T10:27:43.991Z,20.93
2024-02-26T10:30:22.350Z,18.80
2024-02-26T10:32:51.514Z,17.17
2024-02-26T10:35:22.666Z,18.27
2024-02-26T10:37:51.801Z,14.93
2024-02-26T10:40:20.397Z,15.57
2024-02-26T10:42:48.780Z,15.07
2024-02-26T10:45:17.345Z,15.77
2024-02-26T10:47:45.962Z,19.37
2024-02-26T10:50:16.016Z,17.17
2024-02-26T10:52:45.849Z,16.77
2024-02-26T10:55:19.269Z,15.40
2024-02-26T10:57:48.277Z,16.20
2024-02-26T11:00:18.298Z,13.97
2024-02-26T11:02:47.525Z,12.17
2024-02-26T11:05:16.997Z,14.77
2024-02-26T11:07:48.153Z,13.23
2024-02-26T11:10:17.866Z,15.83
2024-02-26T11:12:47.013Z,16.47
2024-02-26T11:15:16.114Z,16.00
2024-02-26T11:17:45.285Z,19.37
2024-02-26T11:20:14.750Z,16.40
2024-02-26T11:22:43.164Z,13.77
2024-02-26T11:25:14.148Z,16.00
2024-02-26T11:27:45.648Z,13.40
2024-02-26T11:30:15.579Z,15.93
2024-02-26T11:32:46.652Z,17.30
2024-02-26T11:35:17.438Z,14.43
2024-02-26T11:37:53.937Z,14.67
2024-02-26T11:40:24.358Z,16.00
2024-02-26T11:42:53.014Z,14.93
2024-02-26T11:45:55.636Z,14.87
2024-02-26T11:48:25.912Z,16.67
2024-02-26T11:50:55.752Z,15.83
2024-02-26T11:53:28.382Z,17.80
2024-02-26T11:56:32.819Z,17.10
2024-02-26T11:59:03.473Z,14.20
2024-02-26T12:01:41.742Z,16.30
2024-02-26T12:04:15.688Z,17.47
2024-02-26T12:06:52.849Z,13.57
2024-02-26T12:09:34.424Z,16.53
2024-02-26T12:12:05.995Z,15.37
2024-02-26T12:14:40.079Z,14.53
2024-02-26T12:17:10.321Z,16.73
2024-02-26T12:19:42.966Z,15.63
2024-02-26T12:22:15.059Z,13.23
2024-02-26T12:24:43.452Z,15.03
2024-02-26T12:27:13.253Z,17.70
2024-02-26T12:29:41.929Z,17.20
2024-02-26T12:32:11.905Z,15.17
2024-02-26T12:34:40.455Z,14.73
2024-02-26T12:37:10.382Z,15.57
2024-02-26T12:39:39.543Z,15.40
2024-02-26T12:42:08.202Z,14.70
2024-02-26T12:44:38.343Z,16.60
2024-02-26T12:47:07.061Z,14.47
2024-02-26T12:49:36.233Z,15.17
2024-02-26T12:52:05.107Z,12.83
2024-02-26T12:54:34.188Z,13.83
2024-02-26T12:57:04.152Z,15.17
2024-02-26T12:59:32.813Z,14.10
2024-02-26T13:02:03.439Z,15.13
2024-02-26T13:04:33.982Z,16.50
2024-02-26T13:07:06.139Z,12.40
2024-02-26T13:09:35.931Z,14.40
2024-02-26T13:12:06.646Z,13.20
2024-02-26T13:14:35.947Z,14.00
2024-02-26T13:17:06.205Z,15.00
2024-02-26T13:19:35.173Z,15.87
2024-02-26T13:22:07.573Z,11.87
2024-02-26T13:24:36.400Z,14.20
2024-02-26T13:27:07.204Z,11.40
2024-02-26T13:29:35.775Z,12.47
2024-02-26T13:32:06.028Z,15.63
2024-02-26T13:34:35.518Z,13.93
2024-02-26T13:37:04.639Z,13.00
2024-02-26T13:39:33.379Z,14.57
2024-02-26T13:42:01.826Z,12.23
2024-02-26T13:44:30.176Z,13.87
2024-02-26T13:46:58.473Z,12.90
2024-02-26T13:49:28.279Z,14.47
2024-02-26T13:51:56.751Z,15.93
2024-02-26T13:54:25.115Z,12.90
2024-02-26T13:56:53.931Z,12.10
2024-02-26T13:59:22.283Z,13.63
2024-02-26T14:01:50.620Z,15.10
2024-02-26T14:04:19.044Z,14.37
2024-02-26T14:06:48.944Z,13.70
2024-02-26T14:09:19.907Z,12.13
2024-02-26T14:11:48.514Z,10.07
2024-02-26T14:14:16.899Z,12.70
2024-02-26T14:16:45.221Z,11.27
2024-02-26T14:19:15.991Z,11.60
2024-02-26T14:21:44.809Z,13.60
2024-02-26T14:24:14.549Z,11.80
2024-02-26T14:26:42.944Z,10.97
2024-02-26T14:29:11.398Z,14.10
2024-02-26T14:31:39.877Z,12.30
2024-02-26T14:34:08.705Z,12.30
2024-02-26T14:36:37.325Z,10.73
2024-02-26T14:39:05.689Z,14.67
2024-02-26T14:41:35.362Z,10.77
2024-02-26T14:44:03.976Z,12.37
2024-02-26T14:46:32.293Z,11.63
2024-02-26T14:49:00.833Z,10.53
2024-02-26T14:51:29.225Z,14.13
2024-02-26T14:53:57.897Z,11.23
2024-02-26T14:56:26.197Z,17.20
2024-02-26T14:58:55.830Z,19.40
2024-02-26T15:01:26.122Z,23.83
2024-02-26T15:03:54.638Z,24.60
2024-02-26T15:06:23.355Z,31.63
2024-02-26T15:08:51.811Z,34.43
2024-02-26T15:11:20.194Z,33.17
2024-02-26T15:13:48.597Z,26.77
2024-02-26T15:16:21.775Z,18.77
2024-02-26T15:18:50.418Z,15.67
2024-02-26T15:21:19.094Z,12.93
2024-02-26T15:23:58.795Z,14.17
2024-02-26T15:26:33.342Z,18.17
2024-02-26T15:29:01.669Z,16.07
2024-02-26T15:31:32.331Z,17.47
2024-02-26T15:34:01.154Z,20.00
2024-02-26T15:36:29.869Z,22.33
2024-02-26T15:38:58.872Z,21.57
2024-02-26T15:41:27.229Z,19.23
2024-02-26T15:43:55.605Z,17.07
2024-02-26T15:46:23.942Z,20.67
2024-02-26T15:48:54.345Z,18.33
2024-02-26T15:51:25.258Z,16.87
2024-02-26T15:53:54.614Z,18.83
2024-02-26T15:56:25.349Z,21.90
2024-02-26T15:58:54.653Z,25.27
2024-02-26T16:01:24.979Z,21.60
2024-02-26T16:03:57.148Z,24.23
2024-02-26T16:06:31.340Z,21.03
2024-02-26T16:09:00.441Z,20.53
2024-02-26T16:11:29.088Z,20.60
2024-02-26T16:14:05.032Z,20.10
2024-02-26T16:16:35.211Z,20.00
2024-02-26T16:19:08.402Z,21.17
2024-02-26T16:21:36.777Z,17.80
2024-02-26T16:24:05.841Z,16.83
2024-02-26T16:26:34.370Z,18.00
2024-02-26T16:29:02.866Z,19.67
2024-02-26T16:31:31.664Z,20.50
2024-02-26T16:34:00.243Z,21.37
2024-02-26T16:36:30.126Z,30.30
2024-02-26T16:38:59.132Z,25.47
2024-02-26T16:41:27.487Z,21.33
2024-02-26T16:43:55.918Z,23.00
2024-02-26T16:46:24.420Z,19.77
2024-02-26T16:48:53.628Z,17.20
2024-02-26T16:51:22.476Z,17.03
2024-02-26T16:53:52.306Z,17.93
2024-02-26T16:56:21.866Z,19.77
2024-02-26T16:58:50.234Z,20.33
2024-02-26T17:01:18.734Z,19.43
2024-02-26T17:03:47.288Z,20.00
2024-02-26T17:06:17.718Z,18.50
2024-02-26T17:08:46.150Z,18.83
2024-02-26T17:11:16.900Z,14.47
2024-02-26T17:13:45.610Z,18.83
2024-02-26T17:16:13.968Z,20.20
2024-02-26T17:18:42.512Z,23.30
2024-02-26T17:21:11.090Z,19.33
2024-02-26T17:23:39.396Z,19.17
2024-02-26T17:26:09.972Z,19.33
2024-02-26T17:28:41.381Z,19.13
2024-02-26T17:31:11.747Z,20.87
2024-02-26T17:33:42.112Z,20.03
2024-02-26T17:36:11.557Z,20.63
2024-02-26T17:38:40.077Z,25.47
2024-02-26T17:41:09.263Z,22.33
2024-02-26T17:43:38.058Z,19.87
2024-02-26T17:46:08.886Z,21.20
2024-02-26T17:48:37.511Z,18.60
2024-02-26T17:51:08.313Z,18.80
2024-02-26T17:53:36.822Z,22.80
2024-02-26T17:56:07.746Z,22.77
2024-02-26T17:58:41.370Z,21.13
2024-02-26T18:01:11.758Z,20.77
2024-02-26T18:03:40.272Z,20.57
2024-02-26T18:06:09.421Z,16.77
2024-02-26T18:08:38.103Z,22.60
2024-02-26T18:11:06.557Z,21.87
2024-02-26T18:13:36.078Z,23.27
2024-02-26T18:16:07.081Z,21.13
2024-02-26T18:18:37.198Z,22.13
2024-02-26T18:21:06.669Z,20.90
2024-02-26T18:23:35.431Z,21.27
2024-02-26T18:26:03.818Z,23.17
2024-02-26T18:28:32.145Z,20.77
2024-02-26T18:31:00.634Z,29.47
2024-02-26T18:33:30.346Z,28.37
2024-02-26T18:36:00.481Z,25.07
2024-02-26T18:38:28.894Z,24.87
2024-02-26T18:40:57.220Z,26.00
2024-02-26T18:43:25.846Z,21.47
2024-02-26T18:45:58.313Z,22.50
2024-02-26T18:48:28.196Z,21.80
2024-02-26T18:50:56.853Z,23.77
2024-02-26T18:53:26.568Z,23.87
2024-02-26T18:55:54.910Z,20.70
2024-02-26T18:58:24.860Z,21.57
2024-02-26T19:00:53.321Z,25.63
2024-02-26T19:03:21.843Z,21.23
2024-02-26T19:05:50.298Z,23.07
2024-02-26T19:08:19.010Z,23.37
2024-02-26T19:10:48.987Z,23.07
2024-02-26T19:13:17.539Z,22.40
2024-02-26T19:15:47.604Z,23.17
2024-02-26T19:18:25.747Z,20.13
2024-02-26T19:20:54.480Z,24.77
2024-02-26T19:23:23.052Z,19.57
2024-02-26T19:25:52.778Z,24.00
2024-02-26T19:28:21.120Z,22.20
2024-02-26T19:30:49.470Z,24.10
2024-02-26T19:33:18.134Z,21.93
2024-02-26T19:35:49.341Z,24.57
2024-02-26T19:38:19.126Z,22.80
2024-02-26T19:40:47.709Z,22.40
2024-02-26T19:43:17.639Z,22.67
2024-02-26T19:45:47.013Z,23.27
2024-02-26T19:48:16.108Z,24.60
2024-02-26T19:50:46.416Z,20.43
2024-02-26T19:53:14.828Z,22.60
2024-02-26T19:55:44.167Z,24.80
2024-02-26T19:58:13.066Z,27.97
2024-02-26T20:00:42.993Z,25.10
2024-02-26T20:03:11.668Z,21.37
2024-02-26T20:05:40.245Z,25.27
2024-02-26T20:08:08.715Z,21.60
2024-02-26T20:10:37.569Z,24.20
2024-02-26T20:13:06.306Z,21.40
2024-02-26T20:15:35.230Z,23.63
2024-02-26T20:18:05.766Z,26.27
2024-02-26T20:20:34.178Z,23.53
2024-02-26T20:23:02.493Z,26.33
2024-02-26T20:25:30.983Z,25.53
2024-02-26T20:27:59.284Z,26.47
2024-02-26T20:30:28.996Z,26.23
2024-02-26T20:32:57.480Z,22.77
2024-02-26T20:35:27.180Z,27.67
2024-02-26T20:37:55.598Z,27.43
2024-02-26T20:40:23.955Z,27.77
2024-02-26T20:42:52.306Z,26.77
2024-02-26T20:45:21.323Z,26.23
2024-02-26T20:47:52.341Z,26.10
2024-02-26T20:50:21.745Z,22.23
2024-02-26T20:52:52.026Z,25.50
2024-02-26T20:55:21.652Z,24.63
2024-02-26T20:57:50.098Z,25.13
2024-02-26T21:00:19.538Z,26.43
2024-02-26T21:02:48.358Z,24.83
2024-02-26T21:05:16.976Z,25.27
2024-02-26T21:07:45.516Z,28.40
2024-02-26T21:10:15.831Z,27.20
2024-02-26T21:12:51.481Z,24.20
2024-02-26T21:15:20.192Z,26.90
2024-02-26T21:17:50.825Z,31.30
2024-02-26T21:20:20.904Z,29.43
2024-02-26T21:22:49.344Z,29.23
2024-02-26T21:25:19.795Z,26.27
2024-02-26T21:27:48.195Z,23.83
2024-02-26T21:30:16.870Z,24.73
2024-02-26T21:32:45.630Z,25.43
2024-02-26T21:35:14.402Z,26.07
2024-02-26T21:37:42.909Z,25.43
2024-02-26T21:40:12.572Z,25.17
2024-02-26T21:42:42.892Z,27.27
2024-02-26T21:45:11.862Z,26.47
2024-02-26T21:47:40.392Z,28.37
2024-02-26T21:50:09.729Z,27.10
2024-02-26T21:52:38.388Z,27.83
2024-02-26T21:55:07.321Z,28.00
2024-02-26T21:57:35.994Z,26.67
2024-02-26T22:00:07.867Z,25.37
2024-02-26T22:02:41.288Z,23.10
2024-02-26T22:05:10.086Z,24.03
2024-02-26T22:07:38.877Z,25.23
2024-02-26T22:10:08.914Z,22.80
2024-02-26T22:12:37.474Z,24.57
2024-02-26T22:15:09.086Z,25.83
2024-02-26T22:17:38.079Z,27.80
2024-02-26T22:20:07.675Z,27.30
2024-02-26T22:22:36.187Z,34.63
2024-02-26T22:25:05.495Z,29.60
2024-02-26T22:27:33.944Z,28.03
2024-02-26T22:30:03.258Z,30.67
2024-02-26T22:32:33.009Z,33.10
2024-02-26T22:35:01.472Z,37.10
2024-02-26T22:37:29.963Z,39.90
2024-02-26T22:39:59.463Z,42.33
2024-02-26T22:42:27.868Z,36.00
2024-02-26T22:44:56.287Z,35.97
2024-02-26T22:47:24.650Z,39.17
2024-02-26T22:49:54.548Z,35.87
2024-02-26T22:52:22.880Z,39.40
2024-02-26T22:54:51.232Z,36.23
2024-02-26T22:57:19.608Z,37.47
2024-02-26T22:59:47.992Z,38.47
2024-02-26T23:02:16.431Z,41.93
2024-02-26T23:04:44.744Z,46.53
2024-02-26T23:07:14.519Z,37.87
2024-02-26T23:09:43.170Z,40.80
2024-02-26T23:12:11.524Z,45.10
2024-02-26T23:14:40.147Z,38.33
2024-02-26T23:17:10.147Z,42.37
2024-02-26T23:19:38.473Z,42.03
2024-02-26T23:22:07.386Z,40.40
2024-02-26T23:24:37.143Z,39.80
2024-02-26T23:27:06.329Z,43.20
2024-02-26T23:29:35.746Z,40.07
2024-02-26T23:32:04.186Z,42.93
2024-02-26T23:34:32.501Z,43.23
2024-02-26T23:37:00.973Z,47.83
2024-02-26T23:39:29.324Z,46.40
2024-02-26T23:41:59.680Z,44.70
2024-02-26T23:44:28.090Z,48.60
2024-02-26T23:46:56.554Z,45.63
2024-02-26T23:49:24.996Z,51.77
2024-02-26T23:51:53.505Z,51.37
2024-02-26T23:54:21.931Z,50.37
2024-02-26T23:56:50.458Z,50.23
2024-02-26T23:59:21.038Z,52.57
